createdAt,value
2023-04-06T00:00:42.365Z,9.03
2023-04-06T00:03:25.614Z,9.04
2023-04-06T00:05:54.867Z,9.04
2023-04-06T00:08:24.744Z,9.04
2023-04-06T00:10:52.898Z,9.07
2023-04-06T00:13:21.726Z,9.08
2023-04-06T00:15:50.147Z,9.11
2023-04-06T00:18:18.290Z,9.12
2023-04-06T00:20:46.798Z,9.14
2023-04-06T00:23:15.257Z,9.14
2023-04-06T00:25:44.662Z,9.15
2023-04-06T00:28:12.882Z,9.15
2023-04-06T00:30:42.157Z,9.12
2023-04-06T00:33:10.613Z,9.10
2023-04-06T00:35:39.966Z,9.09
2023-04-06T00:38:08.316Z,9.09
2023-04-06T00:40:36.659Z,9.11
2023-04-06T00:43:05.286Z,9.09
2023-04-06T00:45:34.372Z,9.10
2023-04-06T00:48:03.190Z,9.12
2023-04-06T00:50:31.543Z,9.14
2023-04-06T00:53:00.861Z,9.15
2023-04-06T00:55:32.273Z,9.17
2023-04-06T00:58:01.693Z,9.21
2023-04-06T01:00:31.969Z,9.24
2023-04-06T01:03:15.175Z,9.26
2023-04-06T01:05:45.492Z,9.26
2023-04-06T01:08:21.086Z,9.26
2023-04-06T01:10:50.176Z,9.27
2023-04-06T01:13:25.985Z,9.28
2023-04-06T01:15:56.330Z,9.31
2023-04-06T01:18:32.942Z,9.31
2023-04-06T01:21:21.393Z,9.31
2023-04-06T01:24:02.354Z,9.28
2023-04-06T01:26:35.917Z,9.29
2023-04-06T01:29:08.047Z,9.28
2023-04-06T01:31:36.497Z,9.26
2023-04-06T01:34:04.644Z,9.26
2023-04-06T01:36:32.834Z,9.30
2023-04-06T01:39:15.188Z,9.32
2023-04-06T01:41:43.715Z,9.32
2023-04-06T01:44:13.120Z,9.35
2023-04-06T01:46:42.648Z,9.37
2023-04-06T01:49:12.777Z,9.39
2023-04-06T01:51:42.878Z,9.41
2023-04-06T01:54:14.289Z,9.44
2023-04-06T01:57:02.613Z,9.48
2023-04-06T01:59:34.252Z,9.50
2023-04-06T02:02:07.541Z,9.50
2023-04-06T02:04:36.469Z,9.52
2023-04-06T02:07:12.807Z,9.53
2023-04-06T02:09:41.903Z,9.56
2023-04-06T02:12:13.614Z,9.59
2023-04-06T02:14:42.239Z,9.63
2023-04-06T02:17:12.317Z,9.66
2023-04-06T02:19:40.421Z,9.69
2023-04-06T02:22:13.708Z,9.72
2023-04-06T02:24:43.265Z,9.75
2023-04-06T02:27:12.105Z,9.77
2023-04-06T02:29:41.106Z,9.78
2023-04-06T02:32:09.390Z,9.80
2023-04-06T02:34:37.662Z,9.83
2023-04-06T02:37:06.915Z,9.85
2023-04-06T02:39:35.585Z,9.86
2023-04-06T02:42:04.555Z,9.87
2023-04-06T02:44:32.812Z,9.89
2023-04-06T02:47:01.106Z,9.89
2023-04-06T02:49:29.977Z,9.89
2023-04-06T02:51:59.684Z,9.91
2023-04-06T02:54:31.432Z,9.91
2023-04-06T02:56:59.969Z,9.93
2023-04-06T02:59:35.619Z,9.94
2023-04-06T03:02:18.425Z,9.95
2023-04-06T03:04:48.339Z,9.96
2023-04-06T03:07:24.089Z,9.97
2023-04-06T03:09:54.395Z,9.98
2023-04-06T03:12:23.272Z,10.00
2023-04-06T03:15:11.952Z,10.02
2023-04-06T03:17:42.178Z,10.03
2023-04-06T03:20:14.410Z,10.03
2023-04-06T03:22:43.878Z,10.02
2023-04-06T03:25:13.896Z,10.03
2023-04-06T03:27:42.415Z,10.03
2023-04-06T03:30:18.731Z,10.04
2023-04-06T03:32:49.224Z,10.06
2023-04-06T03:35:17.640Z,10.07
2023-04-06T03:37:48.661Z,10.09
2023-04-06T03:40:17.652Z,10.11
2023-04-06T03:42:45.827Z,10.11
2023-04-06T03:45:15.735Z,10.09
2023-04-06T03:47:52.694Z,10.08
2023-04-06T03:50:21.520Z,10.08
2023-04-06T03:52:49.757Z,10.08
2023-04-06T03:55:18.034Z,10.08
2023-04-06T03:57:46.211Z,10.10
2023-04-06T04:00:16.694Z,10.12
2023-04-06T04:02:46.048Z,10.13
2023-04-06T04:05:14.779Z,10.15
2023-04-06T04:07:44.757Z,10.16
2023-04-06T04:10:15.638Z,10.16
2023-04-06T04:12:44.171Z,10.17
2023-04-06T04:15:18.745Z,10.19
2023-04-06T04:18:00.520Z,10.22
2023-04-06T04:20:29.617Z,10.25
2023-04-06T04:22:58.328Z,10.28
2023-04-06T04:25:27.212Z,10.30
2023-04-06T04:27:56.199Z,10.29
2023-04-06T04:30:25.753Z,10.29
2023-04-06T04:32:54.991Z,10.29
2023-04-06T04:35:24.193Z,10.29
2023-04-06T04:37:54.357Z,10.31
2023-04-06T04:40:22.666Z,10.31
2023-04-06T04:43:05.468Z,10.30
2023-04-06T04:45:37.646Z,10.33
2023-04-06T04:48:16.432Z,10.36
2023-04-06T04:50:57.838Z,10.39
2023-04-06T04:53:29.103Z,10.41
2023-04-06T04:56:06.454Z,10.43
2023-04-06T04:58:34.746Z,10.44
2023-04-06T05:01:02.987Z,10.44
2023-04-06T05:03:31.758Z,10.44
2023-04-06T05:06:06.829Z,10.42
2023-04-06T05:08:37.276Z,10.40
2023-04-06T05:11:06.132Z,10.41
2023-04-06T05:13:40.689Z,10.44
2023-04-06T05:16:15.954Z,10.46
2023-04-06T05:18:54.725Z,10.50
2023-04-06T05:21:23.614Z,10.55
2023-04-06T05:23:57.983Z,10.59
2023-04-06T05:26:26.507Z,10.63
2023-04-06T05:28:57.346Z,10.64
2023-04-06T05:31:26.729Z,10.68
2023-04-06T05:33:56.322Z,10.72
2023-04-06T05:36:36.685Z,10.75
2023-04-06T05:39:09.852Z,10.77
2023-04-06T05:41:56.748Z,10.81
2023-04-06T05:44:42.286Z,10.85
2023-04-06T05:47:13.740Z,10.88
2023-04-06T05:49:45.123Z,10.94
2023-04-06T05:52:18.687Z,11.02
2023-04-06T05:54:49.429Z,11.09
2023-04-06T05:57:17.925Z,11.12
2023-04-06T05:59:46.840Z,11.17
2023-04-06T06:02:16.296Z,11.24
2023-04-06T06:04:47.621Z,11.32
2023-04-06T06:07:16.370Z,11.39
2023-04-06T06:09:49.411Z,11.47
2023-04-06T06:12:31.750Z,11.57
2023-04-06T06:15:01.710Z,11.67
2023-04-06T06:17:30.933Z,11.77
2023-04-06T06:19:59.703Z,11.91
2023-04-06T06:22:29.224Z,12.08
2023-04-06T06:24:57.771Z,12.23
2023-04-06T06:27:25.998Z,12.31
2023-04-06T06:29:54.537Z,12.33
2023-04-06T06:32:24.170Z,12.42
2023-04-06T06:34:53.507Z,12.61
2023-04-06T06:37:22.098Z,12.71
2023-04-06T06:39:50.327Z,12.72
2023-04-06T06:42:18.899Z,12.70
2023-04-06T06:45:00.041Z,12.67
2023-04-06T06:47:28.257Z,12.62
2023-04-06T06:49:56.715Z,12.53
2023-04-06T06:52:27.013Z,12.48
2023-04-06T06:54:57.169Z,12.47
2023-04-06T06:57:27.141Z,12.47
2023-04-06T06:59:55.329Z,12.48
2023-04-06T07:02:23.935Z,12.54
2023-04-06T07:04:52.193Z,12.66
2023-04-06T07:07:21.691Z,12.83
2023-04-06T07:09:49.891Z,12.94
2023-04-06T07:12:18.300Z,12.98
2023-04-06T07:14:46.519Z,13.00
2023-04-06T07:17:15.566Z,13.03
2023-04-06T07:19:43.990Z,13.01
2023-04-06T07:22:13.255Z,12.93
2023-04-06T07:24:41.610Z,12.83
2023-04-06T07:27:10.158Z,12.72
2023-04-06T07:29:39.823Z,12.68
2023-04-06T07:32:08.499Z,12.67
2023-04-06T07:34:38.074Z,12.68
2023-04-06T07:37:06.331Z,12.71
2023-04-06T07:39:35.734Z,12.72
2023-04-06T07:42:04.109Z,12.77
2023-04-06T07:44:32.489Z,12.80
2023-04-06T07:47:01.450Z,12.81
2023-04-06T07:49:29.672Z,12.78
2023-04-06T07:51:57.818Z,12.73
2023-04-06T07:54:27.002Z,12.70
2023-04-06T07:56:55.116Z,12.69
2023-04-06T07:59:23.265Z,12.69
2023-04-06T08:01:51.635Z,12.71
2023-04-06T08:04:21.484Z,12.75
2023-04-06T08:06:50.001Z,12.80
2023-04-06T08:09:21.563Z,12.84
2023-04-06T08:11:50.004Z,12.89
2023-04-06T08:14:18.092Z,13.01
2023-04-06T08:16:46.953Z,13.14
2023-04-06T08:19:18.239Z,13.25
2023-04-06T08:21:47.311Z,13.35
2023-04-06T08:24:15.961Z,13.39
2023-04-06T08:26:44.445Z,13.43
2023-04-06T08:29:14.167Z,13.41
2023-04-06T08:31:42.528Z,13.37
2023-04-06T08:34:13.799Z,13.36
2023-04-06T08:36:42.778Z,13.32
2023-04-06T08:39:10.897Z,13.30
2023-04-06T08:41:39.019Z,13.30
2023-04-06T08:44:07.370Z,13.33
2023-04-06T08:46:35.863Z,13.38
2023-04-06T08:49:07.978Z,13.41
2023-04-06T08:51:37.678Z,13.45
2023-04-06T08:54:08.434Z,13.54
2023-04-06T08:56:39.308Z,13.63
2023-04-06T08:59:07.541Z,13.69
2023-04-06T09:01:39.988Z,13.71
2023-04-06T09:04:13.043Z,13.66
2023-04-06T09:06:42.477Z,13.59
2023-04-06T09:09:10.928Z,13.51
2023-04-06T09:11:53.004Z,13.44
2023-04-06T09:14:38.783Z,13.36
2023-04-06T09:17:07.320Z,13.33
2023-04-06T09:19:35.517Z,13.31
2023-04-06T09:22:08.578Z,13.28
2023-04-06T09:24:50.584Z,13.28
2023-04-06T09:27:18.928Z,13.27
2023-04-06T09:29:47.090Z,13.27
2023-04-06T09:32:19.412Z,13.27
2023-04-06T09:34:50.920Z,13.28
2023-04-06T09:37:20.225Z,13.23
2023-04-06T09:39:53.341Z,13.12
2023-04-06T09:42:28.159Z,12.97
2023-04-06T09:44:56.381Z,12.79
2023-04-06T09:47:29.453Z,12.63
2023-04-06T09:49:59.368Z,12.46
2023-04-06T09:52:31.426Z,12.33
2023-04-06T09:55:02.421Z,12.23
2023-04-06T09:57:51.868Z,12.18
2023-04-06T10:00:22.324Z,12.15
2023-04-06T10:03:22.455Z,12.08
2023-04-06T10:05:59.592Z,12.03
2023-04-06T10:08:31.736Z,11.97
2023-04-06T10:11:04.432Z,11.90
2023-04-06T10:13:32.756Z,11.85
2023-04-06T10:16:02.401Z,11.84
2023-04-06T10:18:33.897Z,11.84
2023-04-06T10:21:09.749Z,11.82
2023-04-06T10:23:55.580Z,11.81
2023-04-06T10:26:23.931Z,11.79
2023-04-06T10:28:52.300Z,11.74
2023-04-06T10:31:29.242Z,11.71
2023-04-06T10:33:59.422Z,11.68
2023-04-06T10:36:37.312Z,11.60
2023-04-06T10:39:06.905Z,11.54
2023-04-06T10:41:35.616Z,11.48
2023-04-06T10:44:04.025Z,11.45
2023-04-06T10:46:35.088Z,11.43
2023-04-06T10:49:15.542Z,11.43
2023-04-06T10:51:43.702Z,11.46
2023-04-06T10:54:11.956Z,11.52
2023-04-06T10:56:41.028Z,11.56
2023-04-06T10:59:09.161Z,11.58
2023-04-06T11:01:38.474Z,11.58
2023-04-06T11:04:09.043Z,11.58
2023-04-06T11:06:37.248Z,11.58
2023-04-06T11:09:05.374Z,11.59
2023-04-06T11:11:33.956Z,11.61
2023-04-06T11:14:02.319Z,11.65
2023-04-06T11:16:33.353Z,11.74
2023-04-06T11:19:02.736Z,11.82
2023-04-06T11:21:45.017Z,11.87
2023-04-06T11:24:23.830Z,11.88
2023-04-06T11:26:58.006Z,11.88
2023-04-06T11:29:30.936Z,11.87
2023-04-06T11:32:00.202Z,11.88
2023-04-06T11:34:30.501Z,11.85
2023-04-06T11:37:00.870Z,11.83
2023-04-06T11:39:30.555Z,11.85
2023-04-06T11:42:08.974Z,11.86
2023-04-06T11:44:47.216Z,11.89
2023-04-06T11:47:17.706Z,11.96
2023-04-06T11:49:47.569Z,12.04
2023-04-06T11:52:25.983Z,12.09
2023-04-06T11:54:55.103Z,12.12
2023-04-06T11:57:26.626Z,12.14
2023-04-06T11:59:55.107Z,12.16
2023-04-06T12:02:23.435Z,12.22
2023-04-06T12:04:52.414Z,12.25
2023-04-06T12:07:21.562Z,12.29
2023-04-06T12:09:49.834Z,12.33
2023-04-06T12:12:17.957Z,12.34
2023-04-06T12:14:46.136Z,12.34
2023-04-06T12:17:14.914Z,12.38
2023-04-06T12:19:43.030Z,12.44
2023-04-06T12:22:11.716Z,12.52
2023-04-06T12:24:40.605Z,12.57
2023-04-06T12:27:10.909Z,12.61
2023-04-06T12:29:40.016Z,12.70
2023-04-06T12:32:08.205Z,12.75
2023-04-06T12:34:36.793Z,12.79
2023-04-06T12:37:05.653Z,12.82
2023-04-06T12:39:36.716Z,12.82
2023-04-06T12:42:05.864Z,12.83
2023-04-06T12:44:34.108Z,12.78
2023-04-06T12:47:06.180Z,12.77
2023-04-06T12:49:34.698Z,12.80
2023-04-06T12:52:06.877Z,12.84
2023-04-06T12:54:37.380Z,12.89
2023-04-06T12:57:05.517Z,12.91
2023-04-06T12:59:35.751Z,12.96
2023-04-06T13:02:05.242Z,13.01
2023-04-06T13:04:33.681Z,13.06
2023-04-06T13:07:06.572Z,13.15
2023-04-06T13:09:35.389Z,13.20
2023-04-06T13:12:04.071Z,13.25
2023-04-06T13:14:33.104Z,13.29
2023-04-06T13:17:02.107Z,13.32
2023-04-06T13:19:32.373Z,13.30
2023-04-06T13:22:01.658Z,13.26
2023-04-06T13:24:30.639Z,13.19
2023-04-06T13:26:59.441Z,13.13
2023-04-06T13:29:28.383Z,13.10
2023-04-06T13:31:57.317Z,13.04
2023-04-06T13:34:25.834Z,12.99
2023-04-06T13:36:54.011Z,12.89
2023-04-06T13:39:29.936Z,12.80
2023-04-06T13:41:58.559Z,12.67
2023-04-06T13:44:27.214Z,12.53
2023-04-06T13:46:57.761Z,12.44
2023-04-06T13:49:26.199Z,12.37
2023-04-06T13:51:56.163Z,12.31
2023-04-06T13:54:24.473Z,12.29
2023-04-06T13:56:52.763Z,12.29
2023-04-06T13:59:20.986Z,12.32
2023-04-06T14:01:49.323Z,12.35
2023-04-06T14:04:17.901Z,12.38
2023-04-06T14:06:47.386Z,12.42
2023-04-06T14:09:15.938Z,12.45
2023-04-06T14:11:48.148Z,12.47
2023-04-06T14:14:16.244Z,12.47
2023-04-06T14:16:49.839Z,12.47
2023-04-06T14:19:22.084Z,12.50
2023-04-06T14:21:51.753Z,12.53
2023-04-06T14:24:21.944Z,12.53
2023-04-06T14:26:50.262Z,12.54
2023-04-06T14:29:18.806Z,12.55
2023-04-06T14:31:48.477Z,12.56
2023-04-06T14:34:18.088Z,12.56
2023-04-06T14:36:47.453Z,12.54
2023-04-06T14:39:15.770Z,12.54
2023-04-06T14:41:43.999Z,12.55
2023-04-06T14:44:13.488Z,12.56
2023-04-06T14:46:42.430Z,12.57
2023-04-06T14:49:10.846Z,12.57
2023-04-06T14:51:39.000Z,12.60
2023-04-06T14:54:07.222Z,12.63
2023-04-06T14:56:36.095Z,12.64
2023-04-06T14:59:06.731Z,12.65
2023-04-06T15:01:37.012Z,12.68
2023-04-06T15:04:05.641Z,12.72
2023-04-06T15:06:34.541Z,12.76
2023-04-06T15:09:03.849Z,12.80
2023-04-06T15:11:32.040Z,12.83
2023-04-06T15:14:01.191Z,12.84
2023-04-06T15:16:33.579Z,12.87
2023-04-06T15:19:02.843Z,12.88
2023-04-06T15:21:33.861Z,12.89
2023-04-06T15:24:02.338Z,12.89
2023-04-06T15:26:30.793Z,12.89
2023-04-06T15:29:00.467Z,12.85
2023-04-06T15:31:37.720Z,12.81
2023-04-06T15:34:09.298Z,12.80
2023-04-06T15:36:39.088Z,12.80
2023-04-06T15:39:09.973Z,12.79
2023-04-06T15:41:39.182Z,12.76
2023-04-06T15:44:07.457Z,12.74
2023-04-06T15:46:36.766Z,12.73
2023-04-06T15:49:05.151Z,12.73
2023-04-06T15:51:33.887Z,12.71
2023-04-06T15:54:02.022Z,12.67
2023-04-06T15:56:30.613Z,12.63
2023-04-06T15:59:01.563Z,12.63
2023-04-06T16:01:31.283Z,12.64
2023-04-06T16:04:00.549Z,12.64
2023-04-06T16:06:28.882Z,12.62
2023-04-06T16:08:57.709Z,12.61
2023-04-06T16:11:26.276Z,12.61
2023-04-06T16:13:55.622Z,12.62
2023-04-06T16:16:24.050Z,12.63
2023-04-06T16:18:52.404Z,12.62
2023-04-06T16:21:20.526Z,12.60
2023-04-06T16:23:48.859Z,12.59
2023-04-06T16:26:20.143Z,12.56
2023-04-06T16:28:48.477Z,12.53
2023-04-06T16:31:21.358Z,12.51
2023-04-06T16:33:56.202Z,12.50
2023-04-06T16:36:28.693Z,12.48
2023-04-06T16:38:57.443Z,12.45
2023-04-06T16:41:27.040Z,12.40
2023-04-06T16:43:57.664Z,12.38
2023-04-06T16:46:32.867Z,12.36
2023-04-06T16:49:01.055Z,12.34
2023-04-06T16:51:29.558Z,12.34
2023-04-06T16:53:57.702Z,12.33
2023-04-06T16:56:27.767Z,12.30
2023-04-06T16:58:56.373Z,12.25
2023-04-06T17:01:26.234Z,12.16
2023-04-06T17:03:54.788Z,12.08
2023-04-06T17:06:23.845Z,12.00
2023-04-06T17:08:53.721Z,11.93
2023-04-06T17:11:28.715Z,11.89
2023-04-06T17:14:04.285Z,11.85
2023-04-06T17:16:32.886Z,11.82
2023-04-06T17:19:01.274Z,11.79
2023-04-06T17:21:29.818Z,11.75
2023-04-06T17:23:57.837Z,11.73
2023-04-06T17:26:26.685Z,11.70
2023-04-06T17:28:54.737Z,11.68
2023-04-06T17:31:22.916Z,11.65
2023-04-06T17:33:52.837Z,11.64
2023-04-06T17:36:21.986Z,11.64
2023-04-06T17:38:52.691Z,11.62
2023-04-06T17:41:21.865Z,11.61
2023-04-06T17:43:51.598Z,11.59
2023-04-06T17:46:21.418Z,11.58
2023-04-06T17:48:51.046Z,11.57
2023-04-06T17:51:20.701Z,11.58
2023-04-06T17:53:49.032Z,11.58
2023-04-06T17:56:17.431Z,11.59
2023-04-06T17:58:45.715Z,11.57
2023-04-06T18:01:20.482Z,11.55
2023-04-06T18:03:49.016Z,11.53
2023-04-06T18:06:17.775Z,11.51
2023-04-06T18:08:46.296Z,11.51
2023-04-06T18:11:18.493Z,11.51
2023-04-06T18:13:46.859Z,11.49
2023-04-06T18:16:20.276Z,11.48
2023-04-06T18:18:49.560Z,11.46
2023-04-06T18:21:17.636Z,11.43
2023-04-06T18:23:49.505Z,11.40
2023-04-06T18:26:18.441Z,11.37
2023-04-06T18:28:46.983Z,11.34
2023-04-06T18:31:15.145Z,11.34
2023-04-06T18:33:44.164Z,11.33
2023-04-06T18:36:14.718Z,11.30
2023-04-06T18:38:44.634Z,11.29
2023-04-06T18:41:14.704Z,11.29
2023-04-06T18:43:43.245Z,11.28
2023-04-06T18:46:12.924Z,11.29
2023-04-06T18:48:42.243Z,11.28
2023-04-06T18:51:10.695Z,11.25
2023-04-06T18:53:40.077Z,11.24
2023-04-06T18:56:19.059Z,11.22
2023-04-06T18:58:49.225Z,11.23
2023-04-06T19:01:24.468Z,11.22
2023-04-06T19:03:53.930Z,11.21
2023-04-06T19:06:22.740Z,11.22
2023-04-06T19:08:50.893Z,11.21
2023-04-06T19:11:23.384Z,11.20
2023-04-06T19:13:53.661Z,11.17
2023-04-06T19:16:26.562Z,11.17
2023-04-06T19:18:56.653Z,11.14
2023-04-06T19:21:26.042Z,11.09
2023-04-06T19:23:56.684Z,11.04
2023-04-06T19:26:28.141Z,10.95
2023-04-06T19:28:56.282Z,10.84
2023-04-06T19:31:27.136Z,10.73
2023-04-06T19:33:55.767Z,10.62
2023-04-06T19:36:26.235Z,10.50
2023-04-06T19:38:54.804Z,10.40
2023-04-06T19:41:23.249Z,10.34
2023-04-06T19:43:51.442Z,10.29
2023-04-06T19:46:20.136Z,10.18
2023-04-06T19:48:48.272Z,10.06
2023-04-06T19:51:16.574Z,9.99
2023-04-06T19:53:45.406Z,9.93
2023-04-06T19:56:13.749Z,9.87
2023-04-06T19:58:42.247Z,9.81
2023-04-06T20:01:10.541Z,9.79
2023-04-06T20:03:39.063Z,9.79
2023-04-06T20:06:07.258Z,9.77
2023-04-06T20:08:35.510Z,9.73
2023-04-06T20:11:07.715Z,9.70
2023-04-06T20:13:37.780Z,9.70
2023-04-06T20:16:05.922Z,9.73
2023-04-06T20:18:41.286Z,9.74
2023-04-06T20:21:10.047Z,9.76
2023-04-06T20:23:38.142Z,9.78
2023-04-06T20:26:08.713Z,9.76
2023-04-06T20:28:37.651Z,9.73
2023-04-06T20:31:07.042Z,9.70
2023-04-06T20:33:36.030Z,9.70
2023-04-06T20:36:04.612Z,9.70
2023-04-06T20:38:34.188Z,9.70
2023-04-06T20:41:02.739Z,9.68
2023-04-06T20:43:31.930Z,9.64
2023-04-06T20:46:02.713Z,9.63
2023-04-06T20:48:33.627Z,9.58
2023-04-06T20:51:04.693Z,9.50
2023-04-06T20:53:33.137Z,9.43
2023-04-06T20:56:02.114Z,9.34
2023-04-06T20:58:30.977Z,9.20
2023-04-06T21:00:59.082Z,9.06
2023-04-06T21:03:42.618Z,8.94
2023-04-06T21:06:11.389Z,8.87
2023-04-06T21:08:39.549Z,8.84
2023-04-06T21:11:12.547Z,8.83
2023-04-06T21:13:41.247Z,8.85
2023-04-06T21:16:10.402Z,8.90
2023-04-06T21:18:38.926Z,8.93
2023-04-06T21:21:07.601Z,8.95
2023-04-06T21:23:35.910Z,8.95
2023-04-06T21:26:04.203Z,8.95
2023-04-06T21:28:32.652Z,8.94
2023-04-06T21:31:02.309Z,8.93
2023-04-06T21:33:37.656Z,8.87
2023-04-06T21:36:07.134Z,8.82
2023-04-06T21:38:36.708Z,8.79
2023-04-06T21:41:04.919Z,8.78
2023-04-06T21:43:33.885Z,8.76
2023-04-06T21:46:02.581Z,8.75
2023-04-06T21:48:31.703Z,8.73
2023-04-06T21:50:59.883Z,8.71
2023-04-06T21:53:28.159Z,8.69
2023-04-06T21:55:56.266Z,8.63
2023-04-06T21:58:25.184Z,8.55
2023-04-06T22:00:53.737Z,8.50
2023-04-06T22:03:22.522Z,8.47
2023-04-06T22:05:52.749Z,8.44
2023-04-06T22:08:33.741Z,8.35
2023-04-06T22:11:08.195Z,8.24
2023-04-06T22:13:36.583Z,8.17
2023-04-06T22:16:05.366Z,8.14
2023-04-06T22:18:38.049Z,8.15
2023-04-06T22:21:07.191Z,8.16
2023-04-06T22:23:36.082Z,8.11
2023-04-06T22:26:04.443Z,8.02
2023-04-06T22:28:33.406Z,7.96
2023-04-06T22:31:01.760Z,7.92
2023-04-06T22:33:30.751Z,7.89
2023-04-06T22:35:59.461Z,7.87
2023-04-06T22:38:27.957Z,7.86
2023-04-06T22:40:56.444Z,7.89
2023-04-06T22:43:24.913Z,7.91
2023-04-06T22:45:53.199Z,7.90
2023-04-06T22:48:21.545Z,7.88
2023-04-06T22:50:50.025Z,7.85
2023-04-06T22:53:18.486Z,7.80
2023-04-06T22:55:46.712Z,7.75
2023-04-06T22:58:14.962Z,7.72
2023-04-06T23:00:45.166Z,7.69
2023-04-06T23:03:25.998Z,7.67
2023-04-06T23:05:54.492Z,7.66
2023-04-06T23:08:22.485Z,7.64
2023-04-06T23:10:56.195Z,7.63
2023-04-06T23:13:25.467Z,7.62
2023-04-06T23:15:53.639Z,7.61
2023-04-06T23:18:22.688Z,7.59
2023-04-06T23:20:51.056Z,7.58
2023-04-06T23:23:19.259Z,7.56
2023-04-06T23:25:48.096Z,7.55
2023-04-06T23:28:16.176Z,7.54
2023-04-06T23:30:46.141Z,7.54
2023-04-06T23:33:15.002Z,7.53
2023-04-06T23:35:43.282Z,7.52
2023-04-06T23:38:11.679Z,7.51
2023-04-06T23:40:39.706Z,7.52
2023-04-06T23:43:07.765Z,7.52
2023-04-06T23:45:36.109Z,7.52
2023-04-06T23:48:10.537Z,7.52
2023-04-06T23:50:38.901Z,7.50
2023-04-06T23:53:07.259Z,7.47
2023-04-06T23:55:35.591Z,7.46
2023-04-06T23:58:04.304Z,7.46
